createdAt,value
2023-03-06T00:00:25.052Z,12.05
2023-03-06T00:02:52.388Z,10.75
2023-03-06T00:05:19.702Z,11.75
2023-03-06T00:07:46.598Z,11.25
2023-03-06T00:10:21.416Z,11.20
2023-03-06T00:12:48.143Z,11.35
2023-03-06T00:15:15.193Z,10.60
2023-03-06T00:17:41.879Z,11.02
2023-03-06T00:20:11.158Z,12.10
2023-03-06T00:22:38.297Z,11.88
2023-03-06T00:25:05.976Z,11.85
2023-03-06T00:27:33.219Z,11.80
2023-03-06T00:30:01.442Z,11.25
2023-03-06T00:32:29.162Z,11.00
2023-03-06T00:34:56.307Z,11.48
2023-03-06T00:37:24.860Z,11.80
2023-03-06T00:39:51.487Z,10.73
2023-03-06T00:42:19.270Z,11.38
2023-03-06T00:44:46.595Z,11.73
2023-03-06T00:47:13.970Z,11.20
2023-03-06T00:49:40.513Z,11.65
2023-03-06T00:52:07.240Z,10.95
2023-03-06T00:54:33.899Z,10.82
2023-03-06T00:57:00.597Z,12.15
2023-03-06T00:59:28.038Z,12.00
2023-03-06T01:01:55.220Z,11.93
2023-03-06T01:04:22.423Z,12.57
2023-03-06T01:06:49.249Z,12.68
2023-03-06T01:09:15.978Z,12.70
2023-03-06T01:11:42.770Z,12.23
2023-03-06T01:14:09.486Z,13.13
2023-03-06T01:16:36.161Z,12.98
2023-03-06T01:19:03.032Z,12.60
2023-03-06T01:21:29.768Z,12.65
2023-03-06T01:23:56.717Z,13.57
2023-03-06T01:26:23.504Z,12.52
2023-03-06T01:28:50.155Z,12.88
2023-03-06T01:31:16.792Z,12.73
2023-03-06T01:33:43.536Z,13.73
2023-03-06T01:36:12.308Z,13.30
2023-03-06T01:38:39.218Z,13.25
2023-03-06T01:41:06.251Z,14.20
2023-03-06T01:43:38.047Z,14.52
2023-03-06T01:46:34.137Z,13.23
2023-03-06T01:49:25.951Z,13.13
2023-03-06T01:52:14.720Z,14.27
2023-03-06T01:54:53.694Z,12.98
2023-03-06T01:57:31.478Z,13.82
2023-03-06T02:00:14.240Z,14.23
2023-03-06T02:02:42.919Z,14.18
2023-03-06T02:05:10.379Z,13.70
2023-03-06T02:07:38.020Z,14.50
2023-03-06T02:10:06.015Z,14.85
2023-03-06T02:12:32.964Z,14.98
2023-03-06T02:14:59.685Z,14.25
2023-03-06T02:17:27.070Z,14.75
2023-03-06T02:20:24.431Z,14.88
2023-03-06T02:23:28.636Z,15.13
2023-03-06T02:25:56.066Z,15.50
2023-03-06T02:28:23.980Z,14.93
2023-03-06T02:30:52.821Z,15.50
2023-03-06T02:33:22.359Z,15.18
2023-03-06T02:36:00.568Z,15.32
2023-03-06T02:38:37.705Z,15.75
2023-03-06T02:41:06.022Z,15.32
2023-03-06T02:43:38.346Z,14.35
2023-03-06T02:46:06.068Z,15.95
2023-03-06T02:48:32.816Z,14.95
2023-03-06T02:50:59.438Z,15.55
2023-03-06T02:53:26.191Z,15.27
2023-03-06T02:55:52.948Z,15.48
2023-03-06T02:58:21.180Z,14.77
2023-03-06T03:00:48.757Z,15.93
2023-03-06T03:03:15.526Z,15.82
2023-03-06T03:05:42.294Z,14.27
2023-03-06T03:08:08.975Z,15.73
2023-03-06T03:10:35.591Z,14.60
2023-03-06T03:13:02.333Z,14.52
2023-03-06T03:15:29.077Z,16.67
2023-03-06T03:17:55.851Z,15.40
2023-03-06T03:20:22.996Z,15.10
2023-03-06T03:22:51.130Z,15.60
2023-03-06T03:25:18.555Z,15.02
2023-03-06T03:27:45.473Z,15.20
2023-03-06T03:30:12.612Z,15.32
2023-03-06T03:32:39.279Z,14.93
2023-03-06T03:35:07.621Z,15.60
2023-03-06T03:37:35.196Z,15.13
2023-03-06T03:40:02.106Z,15.30
2023-03-06T03:42:28.946Z,15.05
2023-03-06T03:44:55.519Z,15.25
2023-03-06T03:47:22.143Z,15.90
2023-03-06T03:49:48.788Z,14.95
2023-03-06T03:52:15.501Z,15.32
2023-03-06T03:54:42.164Z,15.25
2023-03-06T03:57:08.917Z,15.48
2023-03-06T03:59:35.548Z,13.60
2023-03-06T04:02:05.021Z,13.70
2023-03-06T04:04:33.853Z,14.95
2023-03-06T04:07:01.003Z,14.98
2023-03-06T04:09:27.735Z,15.18
2023-03-06T04:11:54.443Z,13.95
2023-03-06T04:14:22.555Z,14.43
2023-03-06T04:16:49.223Z,13.90
2023-03-06T04:19:15.989Z,14.68
2023-03-06T04:21:42.676Z,15.60
2023-03-06T04:24:09.340Z,16.42
2023-03-06T04:26:36.309Z,17.23
2023-03-06T04:29:02.968Z,16.17
2023-03-06T04:31:29.890Z,16.00
2023-03-06T04:33:56.659Z,15.48
2023-03-06T04:36:31.600Z,15.65
2023-03-06T04:38:58.385Z,16.35
2023-03-06T04:41:25.340Z,16.38
2023-03-06T04:43:52.453Z,16.35
2023-03-06T04:46:19.145Z,17.38
2023-03-06T04:48:45.808Z,17.20
2023-03-06T04:51:13.602Z,16.88
2023-03-06T04:53:40.282Z,16.52
2023-03-06T04:56:07.473Z,17.23
2023-03-06T04:58:34.077Z,17.48
2023-03-06T05:01:02.471Z,16.45
2023-03-06T05:03:29.513Z,16.92
2023-03-06T05:05:56.187Z,17.00
2023-03-06T05:08:23.902Z,16.63
2023-03-06T05:10:56.508Z,16.98
2023-03-06T05:13:23.217Z,16.98
2023-03-06T05:15:49.837Z,17.33
2023-03-06T05:18:17.043Z,17.25
2023-03-06T05:20:43.806Z,17.15
2023-03-06T05:23:10.831Z,16.65
2023-03-06T05:25:40.939Z,17.20
2023-03-06T05:28:08.856Z,16.38
2023-03-06T05:30:35.926Z,16.40
2023-03-06T05:33:02.579Z,17.52
2023-03-06T05:35:29.308Z,18.35
2023-03-06T05:37:56.673Z,17.13
2023-03-06T05:40:23.246Z,16.95
2023-03-06T05:42:50.226Z,16.98
2023-03-06T05:45:16.861Z,17.42
2023-03-06T05:47:43.529Z,20.30
2023-03-06T05:50:11.291Z,18.05
2023-03-06T05:52:39.864Z,17.25
2023-03-06T05:55:10.087Z,17.02
2023-03-06T05:57:36.783Z,17.17
2023-03-06T06:00:04.126Z,16.90
2023-03-06T06:02:30.860Z,17.80
2023-03-06T06:04:57.687Z,17.90
2023-03-06T06:07:24.307Z,19.23
2023-03-06T06:09:53.496Z,18.75
2023-03-06T06:12:20.222Z,17.15
2023-03-06T06:14:46.863Z,17.20
2023-03-06T06:17:13.510Z,17.30
2023-03-06T06:19:40.110Z,17.83
2023-03-06T06:22:07.164Z,18.92
2023-03-06T06:24:33.917Z,18.15
2023-03-06T06:27:03.400Z,19.90
2023-03-06T06:29:30.589Z,19.92
2023-03-06T06:31:58.165Z,19.70
2023-03-06T06:34:25.656Z,19.95
2023-03-06T06:36:53.759Z,18.85
2023-03-06T06:39:22.991Z,17.92
2023-03-06T06:42:02.640Z,18.88
2023-03-06T06:44:32.487Z,19.13
2023-03-06T06:49:50.564Z,17.52
2023-03-06T06:52:19.017Z,20.42
2023-03-06T06:54:45.849Z,19.55
2023-03-06T06:57:12.794Z,18.35
2023-03-06T06:59:39.470Z,17.27
2023-03-06T07:02:06.325Z,16.73
2023-03-06T07:04:33.492Z,17.23
2023-03-06T07:07:01.660Z,17.38
2023-03-06T07:09:30.459Z,17.13
2023-03-06T07:11:57.564Z,17.15
2023-03-06T07:14:24.735Z,16.05
2023-03-06T07:16:51.437Z,16.42
2023-03-06T07:19:18.304Z,16.23
2023-03-06T07:21:45.028Z,15.48
2023-03-06T07:24:11.731Z,15.38
2023-03-06T07:26:38.493Z,14.75
2023-03-06T07:29:05.218Z,14.93
2023-03-06T07:31:32.390Z,14.38
2023-03-06T07:33:59.069Z,14.70
2023-03-06T07:36:25.701Z,14.57
2023-03-06T07:38:52.277Z,14.30
2023-03-06T07:41:22.212Z,14.10
2023-03-06T07:43:49.913Z,13.95
2023-03-06T07:46:17.298Z,13.30
2023-03-06T07:48:44.812Z,14.10
2023-03-06T07:51:19.709Z,14.02
2023-03-06T07:53:47.591Z,13.45
2023-03-06T07:56:14.418Z,13.90
2023-03-06T07:58:43.441Z,13.40
2023-03-06T08:01:13.064Z,13.70
2023-03-06T08:03:39.971Z,14.27
2023-03-06T08:06:17.854Z,14.95
2023-03-06T08:08:46.133Z,14.95
2023-03-06T08:11:15.302Z,14.77
2023-03-06T08:13:42.533Z,13.70
2023-03-06T08:16:09.876Z,12.40
2023-03-06T08:18:38.285Z,13.23
2023-03-06T08:21:13.141Z,12.75
2023-03-06T08:23:40.628Z,13.02
2023-03-06T08:26:11.079Z,12.35
2023-03-06T08:28:37.771Z,12.80
2023-03-06T08:31:21.784Z,11.38
2023-03-06T08:33:48.459Z,12.07
2023-03-06T08:36:15.447Z,12.93
2023-03-06T08:38:42.127Z,11.93
2023-03-06T08:41:08.951Z,12.20
2023-03-06T08:43:36.024Z,12.27
2023-03-06T08:46:02.991Z,11.82
2023-03-06T08:48:29.785Z,12.43
2023-03-06T08:50:56.487Z,12.02
2023-03-06T08:53:33.462Z,12.32
2023-03-06T08:56:08.804Z,11.95
2023-03-06T08:58:35.459Z,12.07
2023-03-06T09:01:03.893Z,12.68
2023-03-06T09:03:30.779Z,12.70
2023-03-06T09:05:57.496Z,12.93
2023-03-06T09:08:24.184Z,12.15
2023-03-06T09:10:50.953Z,12.57
2023-03-06T09:13:17.532Z,12.57
2023-03-06T09:15:44.176Z,12.43
2023-03-06T09:18:10.756Z,11.75
2023-03-06T09:20:37.422Z,11.93
2023-03-06T09:23:04.038Z,12.25
2023-03-06T09:25:31.308Z,12.52
2023-03-06T09:28:10.987Z,11.68
2023-03-06T09:30:40.633Z,11.82
2023-03-06T09:33:07.499Z,12.38
2023-03-06T09:35:34.142Z,11.75
2023-03-06T09:38:00.789Z,10.98
2023-03-06T09:40:42.873Z,11.38
2023-03-06T09:43:19.033Z,11.25
2023-03-06T09:45:45.858Z,11.15
2023-03-06T09:48:16.625Z,10.20
2023-03-06T09:50:53.277Z,10.35
2023-03-06T09:53:49.915Z,10.75
2023-03-06T09:56:20.395Z,10.40
2023-03-06T09:58:54.411Z,9.75
2023-03-06T10:01:25.278Z,9.80
2023-03-06T10:04:12.371Z,9.43
2023-03-06T10:06:48.622Z,9.00
2023-03-06T10:09:38.746Z,9.40
2023-03-06T10:12:24.301Z,10.27
2023-03-06T10:15:08.003Z,9.70
2023-03-06T10:17:38.051Z,9.13
2023-03-06T10:20:44.254Z,8.80
2023-03-06T10:23:47.011Z,9.30
2023-03-06T10:26:17.422Z,8.60
2023-03-06T10:28:54.468Z,8.85
2023-03-06T10:31:27.368Z,9.27
2023-03-06T10:34:43.810Z,9.00
2023-03-06T10:37:20.656Z,9.48
2023-03-06T10:39:52.693Z,8.88
2023-03-06T10:42:19.266Z,9.15
2023-03-06T10:44:46.144Z,9.55
2023-03-06T10:47:30.187Z,8.60
2023-03-06T10:49:59.609Z,8.23
2023-03-06T10:52:29.531Z,8.10
2023-03-06T10:55:24.056Z,7.90
2023-03-06T10:57:50.762Z,8.95
2023-03-06T11:00:29.780Z,7.55
2023-03-06T11:03:18.473Z,7.05
2023-03-06T11:05:56.496Z,6.90
2023-03-06T11:08:23.249Z,6.45
2023-03-06T11:10:58.265Z,6.50
2023-03-06T11:13:27.553Z,6.63
2023-03-06T11:16:19.703Z,6.60
2023-03-06T11:18:59.359Z,6.82
2023-03-06T11:21:32.104Z,7.18
2023-03-06T11:24:06.627Z,7.20
2023-03-06T11:26:38.145Z,7.43
2023-03-06T11:29:12.472Z,7.38
2023-03-06T11:31:45.003Z,7.25
2023-03-06T11:34:24.324Z,7.32
2023-03-06T11:37:16.967Z,7.13
2023-03-06T11:39:49.564Z,7.30
2023-03-06T11:42:20.632Z,7.03
2023-03-06T11:45:10.330Z,7.13
2023-03-06T11:47:54.668Z,7.03
2023-03-06T11:50:46.734Z,7.43
2023-03-06T11:53:15.926Z,7.20
2023-03-06T11:56:15.075Z,8.40
2023-03-06T11:59:01.330Z,7.88
2023-03-06T12:01:38.871Z,8.65
2023-03-06T12:04:39.620Z,8.68
2023-03-06T12:07:17.628Z,8.68
2023-03-06T12:13:50.159Z,8.70
2023-03-06T12:17:00.036Z,8.20
2023-03-06T12:19:31.152Z,8.73
2023-03-06T12:22:09.538Z,8.73
2023-03-06T12:25:22.913Z,8.40
2023-03-06T12:28:18.748Z,8.95
2023-03-06T12:31:25.054Z,9.35
2023-03-06T12:34:13.015Z,9.45
2023-03-06T12:37:02.571Z,9.15
2023-03-06T12:40:01.869Z,9.52
2023-03-06T12:42:48.319Z,8.55
2023-03-06T12:45:25.956Z,8.50
2023-03-06T12:47:56.698Z,8.30
2023-03-06T12:50:29.003Z,8.50
2023-03-06T12:52:58.920Z,8.23
2023-03-06T12:55:26.228Z,8.50
2023-03-06T12:57:54.047Z,8.32
2023-03-06T13:00:58.755Z,9.13
2023-03-06T13:03:54.650Z,9.20
2023-03-06T13:07:01.960Z,8.73
2023-03-06T13:10:05.012Z,9.77
2023-03-06T13:12:51.763Z,9.57
2023-03-06T13:15:41.622Z,9.48
2023-03-06T13:22:03.699Z,9.57
2023-03-06T13:24:35.741Z,9.07
2023-03-06T13:27:45.770Z,8.82
2023-03-06T13:30:43.591Z,7.88
2023-03-06T13:33:52.551Z,9.43
2023-03-06T13:36:30.619Z,9.25
2023-03-06T13:38:59.550Z,9.63
2023-03-06T13:41:33.312Z,9.70
2023-03-06T13:44:01.970Z,10.07
2023-03-06T13:46:31.531Z,10.13
2023-03-06T13:49:13.282Z,10.00
2023-03-06T13:52:09.474Z,10.27
2023-03-06T13:55:14.182Z,11.15
2023-03-06T13:58:10.251Z,10.65
2023-03-06T14:01:07.896Z,11.27
2023-03-06T14:04:01.680Z,11.27
2023-03-06T14:06:46.942Z,11.80
2023-03-06T14:09:32.019Z,11.05
2023-03-06T14:12:02.784Z,11.50
2023-03-06T14:14:36.360Z,11.38
2023-03-06T14:17:05.247Z,11.07
2023-03-06T14:19:37.507Z,11.10
2023-03-06T14:22:06.106Z,12.07
2023-03-06T14:24:42.503Z,11.73
2023-03-06T14:27:17.302Z,11.15
2023-03-06T14:29:44.689Z,12.60
2023-03-06T14:32:12.459Z,11.82
2023-03-06T14:34:41.215Z,12.20
2023-03-06T14:37:20.321Z,11.45
2023-03-06T14:39:47.153Z,11.82
2023-03-06T14:42:28.574Z,11.65
2023-03-06T14:45:03.687Z,10.68
2023-03-06T14:47:32.646Z,10.60
2023-03-06T14:50:27.956Z,11.48
2023-03-06T14:52:59.965Z,10.85
2023-03-06T14:55:28.679Z,11.00
2023-03-06T14:58:03.282Z,11.77
2023-03-06T15:00:35.814Z,11.80
2023-03-06T15:03:05.571Z,12.07
2023-03-06T15:05:32.751Z,12.52
2023-03-06T15:08:04.549Z,13.68
2023-03-06T15:10:33.541Z,13.98
2023-03-06T15:13:21.686Z,13.00
2023-03-06T15:16:15.798Z,12.20
2023-03-06T15:19:01.375Z,12.73
2023-03-06T15:21:31.438Z,13.23
2023-03-06T15:23:58.273Z,14.30
2023-03-06T15:26:31.631Z,13.20
2023-03-06T15:29:31.045Z,14.23
2023-03-06T15:32:25.475Z,14.65
2023-03-06T15:35:30.242Z,13.52
2023-03-06T15:37:57.606Z,12.95
2023-03-06T15:40:26.714Z,13.95
2023-03-06T15:42:53.462Z,13.73
2023-03-06T15:45:22.379Z,15.45
2023-03-06T15:47:51.097Z,13.98
2023-03-06T15:50:23.724Z,13.18
2023-03-06T15:52:50.427Z,13.30
2023-03-06T15:55:19.754Z,13.98
2023-03-06T15:58:05.014Z,13.63
2023-03-06T16:00:34.402Z,15.00
2023-03-06T16:03:02.342Z,14.13
2023-03-06T16:05:29.370Z,14.05
2023-03-06T16:07:56.465Z,14.02
2023-03-06T16:10:25.873Z,13.98
2023-03-06T16:12:55.795Z,14.10
2023-03-06T16:15:29.289Z,14.15
2023-03-06T16:17:57.008Z,14.90
2023-03-06T16:20:25.717Z,14.65
2023-03-06T16:22:53.964Z,14.25
2023-03-06T16:25:21.716Z,14.57
2023-03-06T16:27:55.586Z,15.07
2023-03-06T16:30:24.382Z,15.95
2023-03-06T16:32:51.035Z,15.85
2023-03-06T16:35:18.694Z,16.40
2023-03-06T16:37:52.224Z,17.10
2023-03-06T16:40:22.648Z,17.27
2023-03-06T16:42:50.332Z,16.70
2023-03-06T16:45:18.312Z,16.38
2023-03-06T16:47:46.388Z,16.88
2023-03-06T16:50:27.514Z,16.63
2023-03-06T16:52:55.638Z,17.75
2023-03-06T16:55:23.803Z,17.48
2023-03-06T16:57:50.746Z,15.20
2023-03-06T17:00:18.818Z,16.48
2023-03-06T17:02:47.620Z,14.80
2023-03-06T17:05:14.540Z,15.52
2023-03-06T17:07:41.566Z,15.60
2023-03-06T17:10:11.067Z,15.23
2023-03-06T17:12:37.753Z,16.30
2023-03-06T17:15:06.127Z,16.60
2023-03-06T17:17:32.981Z,16.83
2023-03-06T17:19:59.846Z,18.02
2023-03-06T17:22:27.544Z,17.90
2023-03-06T17:24:54.469Z,17.48
2023-03-06T17:27:22.381Z,16.60
2023-03-06T17:29:49.004Z,17.15
2023-03-06T17:32:15.809Z,18.00
2023-03-06T17:34:42.837Z,18.85
2023-03-06T17:37:09.508Z,18.42
2023-03-06T17:39:37.657Z,17.35
2023-03-06T17:42:05.643Z,17.70
2023-03-06T17:44:34.123Z,18.15
2023-03-06T17:47:01.470Z,18.42
2023-03-06T17:49:28.238Z,18.70
2023-03-06T17:51:56.790Z,18.17
2023-03-06T17:54:26.217Z,16.88
2023-03-06T17:57:01.119Z,16.63
2023-03-06T17:59:28.320Z,16.80
2023-03-06T18:01:58.879Z,16.58
2023-03-06T18:04:25.737Z,18.15
2023-03-06T18:06:52.476Z,15.85
2023-03-06T18:09:19.383Z,16.38
2023-03-06T18:11:45.971Z,16.95
2023-03-06T18:14:12.581Z,16.48
2023-03-06T18:16:39.236Z,16.52
2023-03-06T18:19:05.905Z,16.00
2023-03-06T18:21:32.558Z,15.70
2023-03-06T18:23:59.309Z,15.32
2023-03-06T18:26:28.212Z,16.13
2023-03-06T18:29:01.642Z,16.48
2023-03-06T18:31:33.761Z,15.37
2023-03-06T18:34:03.709Z,16.42
2023-03-06T18:36:32.077Z,16.65
2023-03-06T18:39:00.893Z,16.80
2023-03-06T18:41:27.562Z,17.33
2023-03-06T18:43:55.905Z,17.83
2023-03-06T18:46:23.387Z,16.92
2023-03-06T18:48:50.393Z,17.65
2023-03-06T18:51:18.050Z,17.05
2023-03-06T18:53:44.875Z,17.08
2023-03-06T18:56:16.880Z,17.40
2023-03-06T18:58:44.529Z,20.33
2023-03-06T19:01:12.208Z,16.02
2023-03-06T19:03:38.950Z,15.93
2023-03-06T19:06:08.094Z,16.83
2023-03-06T19:08:36.093Z,17.58
2023-03-06T19:11:08.012Z,17.27
2023-03-06T19:13:34.816Z,16.95
2023-03-06T19:16:02.030Z,16.02
2023-03-06T19:18:31.060Z,16.27
2023-03-06T19:21:11.447Z,16.13
2023-03-06T19:23:38.205Z,16.10
2023-03-06T19:26:05.326Z,14.23
2023-03-06T19:28:32.665Z,15.70
2023-03-06T19:31:00.486Z,15.82
2023-03-06T19:33:27.179Z,16.42
2023-03-06T19:35:56.231Z,15.43
2023-03-06T19:38:23.039Z,16.42
2023-03-06T19:40:50.716Z,16.83
2023-03-06T19:43:17.491Z,16.73
2023-03-06T19:45:44.874Z,16.92
2023-03-06T19:48:12.656Z,16.95
2023-03-06T19:50:40.513Z,18.98
2023-03-06T19:53:08.288Z,23.05
2023-03-06T19:55:35.054Z,20.52
2023-03-06T19:58:02.118Z,19.15
2023-03-06T20:00:28.942Z,20.75
2023-03-06T20:02:56.241Z,42.38
2023-03-06T20:05:22.984Z,31.95
2023-03-06T20:07:50.179Z,26.48
2023-03-06T20:10:17.591Z,31.02
2023-03-06T20:12:44.546Z,27.92
2023-03-06T20:15:11.427Z,27.83
2023-03-06T20:17:40.747Z,28.13
2023-03-06T20:20:10.842Z,33.08
2023-03-06T20:22:37.720Z,30.02
2023-03-06T20:25:05.244Z,28.23
2023-03-06T20:27:32.944Z,33.30
2023-03-06T20:29:59.790Z,29.95
2023-03-06T20:32:26.955Z,67.25
2023-03-06T20:34:53.564Z,31.58
2023-03-06T20:37:20.126Z,28.23
2023-03-06T20:39:47.002Z,27.20
2023-03-06T20:42:13.639Z,27.27
2023-03-06T20:44:40.297Z,27.40
2023-03-06T20:47:06.897Z,29.10
2023-03-06T20:49:33.532Z,29.25
2023-03-06T20:52:00.164Z,28.17
2023-03-06T20:54:26.788Z,25.15
2023-03-06T20:56:53.417Z,23.73
2023-03-06T20:59:20.216Z,21.92
2023-03-06T21:01:48.149Z,23.00
2023-03-06T21:04:15.517Z,22.83
2023-03-06T21:06:46.744Z,21.20
2023-03-06T21:09:16.279Z,20.77
2023-03-06T21:11:42.939Z,23.23
2023-03-06T21:14:09.800Z,21.15
2023-03-06T21:16:36.574Z,22.15
2023-03-06T21:19:03.851Z,22.88
2023-03-06T21:21:33.506Z,22.75
2023-03-06T21:24:01.106Z,22.52
2023-03-06T21:26:33.938Z,22.70
2023-03-06T21:29:01.712Z,22.98
2023-03-06T21:31:28.920Z,23.27
2023-03-06T21:33:56.438Z,22.77
2023-03-06T21:36:23.831Z,22.58
2023-03-06T21:38:52.376Z,23.25
2023-03-06T21:41:24.945Z,21.52
2023-03-06T21:43:59.252Z,19.90
2023-03-06T21:46:26.864Z,19.77
2023-03-06T21:48:53.840Z,20.33
2023-03-06T21:51:23.778Z,21.08
2023-03-06T21:53:51.173Z,23.73
2023-03-06T21:56:19.357Z,25.10
2023-03-06T21:58:46.063Z,21.25
2023-03-06T22:01:16.266Z,23.00
2023-03-06T22:03:43.119Z,21.50
2023-03-06T22:06:15.374Z,21.30
2023-03-06T22:08:42.745Z,21.98
2023-03-06T22:11:15.021Z,18.70
2023-03-06T22:13:41.864Z,18.98
2023-03-06T22:16:08.888Z,19.02
2023-03-06T22:18:36.240Z,18.33
2023-03-06T22:21:10.202Z,17.67
2023-03-06T22:23:37.131Z,17.58
2023-03-06T22:26:09.417Z,19.08
2023-03-06T22:28:36.365Z,16.45
2023-03-06T22:31:05.372Z,16.75
2023-03-06T22:33:31.998Z,17.15
2023-03-06T22:36:05.492Z,15.43
2023-03-06T22:38:33.858Z,16.30
2023-03-06T22:41:00.887Z,15.88
2023-03-06T22:43:27.748Z,16.23
2023-03-06T22:45:54.522Z,16.83
2023-03-06T22:48:21.300Z,16.08
2023-03-06T22:50:47.943Z,15.68
2023-03-06T22:53:14.568Z,15.48
2023-03-06T22:55:41.463Z,15.90
2023-03-06T22:58:08.185Z,15.23
2023-03-06T23:00:35.232Z,15.63
2023-03-06T23:03:02.220Z,15.60
2023-03-06T23:05:29.568Z,15.93
2023-03-06T23:07:56.360Z,14.98
2023-03-06T23:10:23.087Z,15.25
2023-03-06T23:12:49.691Z,15.35
2023-03-06T23:15:16.360Z,15.05
2023-03-06T23:17:43.041Z,14.80
2023-03-06T23:20:10.412Z,14.90
2023-03-06T23:22:37.340Z,13.80
2023-03-06T23:25:04.551Z,13.65
2023-03-06T23:27:31.366Z,12.82
2023-03-06T23:29:59.231Z,12.63
2023-03-06T23:32:26.199Z,12.55
2023-03-06T23:34:52.859Z,13.95
2023-03-06T23:37:19.544Z,12.45
2023-03-06T23:39:46.146Z,12.55
2023-03-06T23:42:12.744Z,12.38
2023-03-06T23:44:39.601Z,12.10
2023-03-06T23:47:06.236Z,13.70
2023-03-06T23:49:33.037Z,13.68
2023-03-06T23:51:59.721Z,13.38
2023-03-06T23:54:26.454Z,12.60
2023-03-06T23:56:53.070Z,13.23
2023-03-06T23:59:19.702Z,13.90
